Time;durP1;ratioP1;P1;durP2;ratioP2;P2;SDS_P1;SDS_P2;PMS_P1;PMS_P2;Temp;Humidity;BMP_temperature;BMP_pressure;BME280_temperature;BME280_humidity;BME280_pressure;Samples;Min_cycle;Max_cycle;Signal;HPM_P1;HPM_P2
2021/12/10 00:00:38;;;;;;;7.33;0.60;;;;;;;14.59;83.59;98295.22;5119098;27;20177;-90
2021/12/10 00:03:07;;;;;;;5.80;0.97;;;;;;;14.53;83.33;98304.47;5119029;27;20174;-88
2021/12/10 00:05:41;;;;;;;7.93;1.03;;;;;;;14.59;82.93;98305.75;5137382;27;20180;-87
2021/12/10 00:08:08;;;;;;;17.40;1.73;;;;;;;14.68;82.88;98299.72;5119573;27;20171;-87
2021/12/10 00:10:37;;;;;;;8.73;1.10;;;;;;;14.75;81.33;98293.00;5118793;27;20205;-89
2021/12/10 00:13:04;;;;;;;10.10;0.70;;;;;;;14.72;81.86;98301.16;5118853;27;20195;-88
2021/12/10 00:15:32;;;;;;;3.07;0.93;;;;;;;14.81;81.02;98308.28;5136880;27;20173;-87
2021/12/10 00:18:01;;;;;;;3.00;1.50;;;;;;;14.77;80.86;98312.16;5119017;27;20184;-87
2021/12/10 00:20:29;;;;;;;5.10;1.30;;;;;;;14.80;80.41;98298.72;5136798;27;20179;-87
2021/12/10 00:23:03;;;;;;;3.13;0.83;;;;;;;14.76;80.59;98307.84;5118504;27;20169;-86
2021/12/10 00:25:36;;;;;;;1.00;0.40;;;;;;;14.86;79.92;98303.47;5118659;27;20631;-87
2021/12/10 00:28:13;;;;;;;2.40;0.90;;;;;;;14.93;79.11;98294.09;5119525;27;20168;-88
2021/12/10 00:30:54;;;;;;;6.80;1.40;;;;;;;14.85;79.53;98301.81;5118541;27;20272;-88
2021/12/10 00:33:21;;;;;;;5.30;0.90;;;;;;;14.93;78.95;98299.38;5136835;27;20181;-88
2021/12/10 00:35:48;;;;;;;9.20;2.87;;;;;;;14.93;79.14;98303.81;5137105;27;20184;-87
2021/12/10 00:38:14;;;;;;;5.10;1.07;;;;;;;14.90;78.71;98294.34;5118417;27;20193;-88
2021/12/10 00:40:41;;;;;;;9.83;2.77;;;;;;;14.99;78.73;98293.56;5136698;27;20624;-88
2021/12/10 00:43:07;;;;;;;4.47;0.63;;;;;;;15.01;78.46;98289.00;5118302;27;20211;-88
2021/12/10 00:45:32;;;;;;;1.73;0.77;;;;;;;14.99;78.40;98272.44;5136327;27;20172;-88
2021/12/10 00:47:58;;;;;;;4.27;0.90;;;;;;;15.05;77.69;98277.22;5136244;27;20182;-89
2021/12/10 00:50:29;;;;;;;5.13;1.03;;;;;;;14.85;78.36;98274.59;5136477;27;20195;-88
2021/12/10 00:52:56;;;;;;;5.47;1.30;;;;;;;14.89;78.27;98279.47;5136191;27;20193;-88
2021/12/10 00:55:23;;;;;;;8.30;1.60;;;;;;;14.86;78.37;98266.53;5136437;27;20177;-88
2021/12/10 00:57:49;;;;;;;10.60;2.87;;;;;;;14.88;78.37;98259.34;5136887;27;20245;-87
2021/12/10 01:00:19;;;;;;;7.43;1.13;;;;;;;15.08;76.97;98250.56;5118215;27;20175;-88
2021/12/10 01:02:46;;;;;;;12.20;1.47;;;;;;;15.08;77.07;98255.84;5117958;27;20265;-88
2021/12/10 01:05:14;;;;;;;4.90;1.03;;;;;;;15.08;77.05;98261.13;5118418;27;20524;-89
2021/12/10 01:07:40;;;;;;;6.13;0.97;;;;;;;15.15;76.96;98256.16;5118304;27;20661;-90
2021/12/10 01:10:14;;;;;;;3.00;0.93;;;;;;;15.24;76.59;98243.03;5117308;27;20579;-88
2021/12/10 01:12:46;;;;;;;5.80;0.97;;;;;;;15.21;77.05;98235.38;5136068;27;20193;-89
2021/12/10 01:28:36;;;;;;;7.50;0.80;;;;;;;15.36;76.37;98207.63;5135739;27;20246;-89
2021/12/10 01:31:01;;;;;;;3.47;1.30;;;;;;;15.30;76.50;98208.16;5117232;27;20213;-89
2021/12/10 01:33:27;;;;;;;19.03;2.27;;;;;;;15.28;76.75;98207.47;5135350;27;20639;-90
2021/12/10 01:35:56;;;;;;;3.73;1.07;;;;;;;15.38;75.84;98208.31;5135298;27;20232;-89
2021/12/10 01:38:23;;;;;;;2.10;1.00;;;;;;;15.41;76.00;98206.41;5135223;27;20178;-89
2021/12/10 01:40:54;;;;;;;5.03;1.47;;;;;;;15.52;75.37;98203.69;5117506;27;20362;-89
2021/12/10 01:43:23;;;;;;;2.47;1.23;;;;;;;15.52;75.40;98201.03;5135483;27;20629;-89
2021/12/10 01:46:01;;;;;;;11.67;1.60;;;;;;;15.52;75.41;98195.75;5117247;27;20626;-89
2021/12/10 01:48:33;;;;;;;7.33;0.93;;;;;;;15.63;74.48;98193.88;5117070;27;20170;-89
2021/12/10 01:51:00;;;;;;;8.17;1.73;;;;;;;15.66;74.05;98183.03;5116851;27;20197;-89
2021/12/10 01:53:29;;;;;;;7.33;0.97;;;;;;;15.75;73.24;98176.06;5135256;27;20260;-89
2021/12/10 01:55:58;;;;;;;6.83;0.97;;;;;;;15.66;72.90;98171.63;5134983;27;20175;-91
2021/12/10 01:58:26;;;;;;;8.67;1.27;;;;;;;15.71;72.57;98169.41;5134871;27;20632;-89
2021/12/10 02:01:10;;;;;;;9.57;1.13;;;;;;;15.71;71.89;98166.78;5134826;27;20176;-91
2021/12/10 02:03:37;;;;;;;10.70;1.47;;;;;;;15.71;72.16;98153.56;5135106;27;20169;-88
2021/12/10 02:06:04;;;;;;;7.40;1.90;;;;;;;15.72;72.45;98158.69;5116942;27;20185;-87
2021/12/10 02:08:29;;;;;;;5.23;1.03;;;;;;;15.67;71.94;98155.63;5134931;27;20660;-88
2021/12/10 02:10:55;;;;;;;5.20;1.47;;;;;;;15.59;71.98;98149.38;5116526;27;20230;-88
2021/12/10 02:13:21;;;;;;;10.70;1.57;;;;;;;15.65;71.92;98148.81;5116837;27;20562;-89
2021/12/10 02:15:46;;;;;;;7.27;1.47;;;;;;;15.81;71.08;98143.84;5116816;27;20221;-87
2021/12/10 02:18:13;;;;;;;3.97;1.10;;;;;;;15.94;70.47;98139.13;5134877;27;20185;-89
2021/12/10 02:21:00;;;;;;;6.43;1.53;;;;;;;16.03;70.01;98132.16;5116625;28;20183;-90
2021/12/10 02:23:25;;;;;;;2.00;0.90;;;;;;;15.93;69.99;98137.47;5116985;27;20201;-89
2021/12/10 02:25:51;;;;;;;6.60;1.53;;;;;;;15.75;70.81;98137.28;5116418;27;20175;-90
2021/12/10 02:28:17;;;;;;;5.97;1.33;;;;;;;15.89;70.66;98120.19;5134814;27;20178;-90
2021/12/10 02:30:44;;;;;;;7.77;1.60;;;;;;;15.94;69.92;98115.34;5135506;27;20202;-87
2021/12/10 02:33:09;;;;;;;13.07;1.70;;;;;;;15.95;69.62;98111.72;5116283;27;20621;-87
2021/12/10 02:35:35;;;;;;;11.80;1.97;;;;;;;15.81;70.80;98112.13;5116265;28;20273;-89
2021/12/10 02:38:01;;;;;;;8.83;1.50;;;;;;;15.97;70.01;98113.25;5134277;28;20189;-89
2021/12/10 02:40:29;;;;;;;7.93;1.47;;;;;;;16.04;69.35;98120.63;5135022;27;20260;-88
2021/12/10 02:42:56;;;;;;;6.57;1.30;;;;;;;16.04;69.78;98118.81;5116071;28;20182;-88
2021/12/10 02:45:24;;;;;;;7.63;0.83;;;;;;;15.89;70.55;98114.91;5134197;28;20171;-88
2021/12/10 02:47:51;;;;;;;9.17;1.23;;;;;;;16.02;70.40;98104.91;5134158;28;20260;-88
2021/12/10 02:50:19;;;;;;;4.33;1.20;;;;;;;15.96;70.44;98097.53;5134406;28;20193;-88
2021/12/10 02:52:45;;;;;;;5.13;1.30;;;;;;;15.89;71.00;98107.81;5134713;28;20181;-87
2021/12/10 02:55:14;;;;;;;9.00;1.70;;;;;;;16.04;71.01;98105.59;5134367;28;20178;-89
2021/12/10 02:57:45;;;;;;;5.47;1.07;;;;;;;15.95;71.36;98109.09;5116009;28;20198;-87
2021/12/10 03:00:14;;;;;;;3.47;1.37;;;;;;;15.96;71.57;98094.88;5116312;28;20206;-88
2021/12/10 03:02:41;;;;;;;5.30;1.60;;;;;;;15.85;71.98;98095.84;5115915;28;20207;-88
2021/12/10 03:05:08;;;;;;;4.30;1.07;;;;;;;15.79;72.42;98092.94;5134019;28;20620;-87
2021/12/10 03:07:35;;;;;;;11.77;1.73;;;;;;;15.71;72.90;98096.28;5134037;28;20174;-87
2021/12/10 03:10:05;;;;;;;7.77;1.73;;;;;;;15.65;73.68;98088.06;5116144;28;20174;-88
2021/12/10 03:12:31;;;;;;;4.57;1.00;;;;;;;15.72;73.78;98078.63;5133957;28;20181;-89
2021/12/10 03:14:57;;;;;;;14.33;2.83;;;;;;;15.93;72.95;98074.03;5133884;28;20174;-87
2021/12/10 03:17:26;;;;;;;4.13;0.53;;;;;;;15.65;73.26;98080.13;5133935;28;20323;-88
2021/12/10 03:19:52;;;;;;;7.50;2.10;;;;;;;15.70;73.47;98070.81;5133870;28;20182;-88
2021/12/10 03:22:18;;;;;;;9.47;1.50;;;;;;;15.87;73.08;98070.16;5115814;28;20236;-87
2021/12/10 03:24:44;;;;;;;4.60;0.80;;;;;;;16.06;72.25;98069.31;5133767;28;20194;-88
2021/12/10 03:27:11;;;;;;;6.60;0.83;;;;;;;15.87;72.80;98058.72;5133843;28;20212;-90
2021/12/10 03:29:41;;;;;;;4.90;1.57;;;;;;;15.92;72.45;98053.84;5133794;28;20188;-87
2021/12/10 03:32:11;;;;;;;5.00;0.70;;;;;;;16.01;72.22;98057.47;5134763;27;20191;-88
2021/12/10 03:34:38;;;;;;;1.67;0.60;;;;;;;16.16;71.31;98061.34;5138307;27;20177;-89
2021/12/10 03:37:05;;;;;;;4.07;1.10;;;;;;;16.08;70.73;98062.06;5137640;27;20182;-89
2021/12/10 03:39:46;;;;;;;7.37;1.23;;;;;;;16.12;70.91;98068.72;5137902;27;20253;-91
2021/12/10 03:42:13;;;;;;;8.10;0.87;;;;;;;16.18;70.43;98062.88;5119589;27;20167;-91
2021/12/10 03:44:39;;;;;;;4.50;1.20;;;;;;;16.02;70.48;98073.19;5119648;27;20182;-87
2021/12/10 03:47:06;;;;;;;10.77;2.00;;;;;;;16.23;70.25;98059.81;5119351;27;20249;-89
2021/12/10 03:49:38;;;;;;;1.57;0.80;;;;;;;16.27;69.94;98063.84;5119326;27;20193;-91
2021/12/10 03:52:07;;;;;;;8.60;1.40;;;;;;;16.29;69.88;98070.66;5137609;27;20213;-91
2021/12/10 03:54:33;;;;;;;1.77;1.13;;;;;;;16.24;70.21;98054.38;5137960;27;20182;-88
2021/12/10 03:56:59;;;;;;;3.40;1.03;;;;;;;15.93;71.71;98080.13;5119335;27;20258;-89
2021/12/10 03:59:25;;;;;;;11.13;1.10;;;;;;;16.17;71.58;98077.06;5119340;27;20648;-90
2021/12/10 04:01:55;;;;;;;3.33;0.57;;;;;;;16.19;71.76;98075.13;5119526;27;20193;-91
2021/12/10 04:04:34;;;;;;;10.27;1.63;;;;;;;15.95;73.53;98085.31;5119114;27;20179;-88
2021/12/10 04:07:01;;;;;;;7.30;1.73;;;;;;;15.96;74.25;98084.31;5118997;27;20181;-88
2021/12/10 04:09:27;;;;;;;4.37;0.70;;;;;;;15.87;74.33;98087.81;5119175;27;20209;-90
2021/12/10 04:11:55;;;;;;;11.90;0.93;;;;;;;15.94;74.19;98089.75;5118855;27;20671;-91
2021/12/10 04:14:22;;;;;;;7.13;1.00;;;;;;;15.92;74.49;98096.97;5137061;27;20179;-89
2021/12/10 04:16:54;;;;;;;15.90;3.73;;;;;;;15.95;74.84;98093.22;5119660;27;20205;-88
2021/12/10 04:19:22;;;;;;;2.30;1.20;;;;;;;15.78;74.60;98092.09;5137214;27;20239;-87
2021/12/10 04:21:48;;;;;;;14.53;1.90;;;;;;;15.78;75.20;98091.25;5136944;27;20667;-90
2021/12/10 04:24:18;;;;;;;2.93;0.90;;;;;;;15.80;75.11;98089.34;5136730;27;20300;-90
2021/12/10 04:26:45;;;;;;;8.53;0.97;;;;;;;15.80;75.17;98074.28;5119191;27;20173;-87
2021/12/10 04:29:10;;;;;;;8.60;1.43;;;;;;;15.98;74.52;98061.25;5136667;27;20182;-88
2021/12/10 04:31:37;;;;;;;5.50;1.40;;;;;;;15.75;75.14;98060.66;5136582;27;20223;-88
2021/12/10 04:34:03;;;;;;;8.53;1.43;;;;;;;15.77;75.27;98058.75;5118814;27;20221;-90
2021/12/10 04:36:28;;;;;;;10.87;2.27;;;;;;;15.81;75.30;98038.13;5118762;27;20171;-88
2021/12/10 04:38:54;;;;;;;1.80;0.60;;;;;;;15.78;75.19;98059.56;5136575;27;20189;-95
2021/12/10 04:41:27;;;;;;;3.10;0.93;;;;;;;15.76;75.11;98033.28;5118714;27;20208;-90
2021/12/10 04:43:53;;;;;;;15.40;0.90;;;;;;;15.69;75.29;98036.63;5117678;28;20574;-90
2021/12/10 04:46:19;;;;;;;5.43;1.60;;;;;;;15.82;75.09;98051.22;5118348;27;20174;-90
2021/12/10 04:48:59;;;;;;;11.07;1.77;;;;;;;15.74;75.20;98040.53;5136311;27;20186;-89
2021/12/10 04:51:32;;;;;;;4.97;0.80;;;;;;;15.58;75.02;98042.03;5136904;27;20273;-90
2021/12/10 04:53:58;;;;;;;12.77;2.27;;;;;;;15.54;75.58;98032.75;5136236;27;20190;-87
2021/12/10 04:56:30;;;;;;;9.27;2.20;;;;;;;15.57;74.81;98013.94;5136529;27;20174;-90
2021/12/10 04:58:57;;;;;;;10.37;1.67;;;;;;;15.78;73.80;98022.56;5118120;27;20178;-91
2021/12/10 05:01:23;;;;;;;3.23;0.83;;;;;;;15.76;73.46;98024.53;5118368;27;20181;-88
2021/12/10 05:03:49;;;;;;;4.37;0.77;;;;;;;15.72;73.54;98031.88;5117983;27;20189;-87
2021/12/10 05:06:15;;;;;;;10.10;1.20;;;;;;;15.82;72.92;98034.53;5117802;27;20189;-88
2021/12/10 05:08:40;;;;;;;5.20;1.37;;;;;;;15.69;73.05;98053.31;5136235;27;20191;-88
2021/12/10 05:11:09;;;;;;;5.80;1.20;;;;;;;15.53;73.58;98049.53;5118016;27;20690;-88
2021/12/10 05:13:40;;;;;;;5.33;1.33;;;;;;;15.65;72.71;98048.44;5135829;27;20206;-90
2021/12/10 05:16:06;;;;;;;5.33;1.10;;;;;;;15.82;72.34;98061.81;5135686;27;20183;-87
2021/12/10 05:18:37;;;;;;;9.30;1.57;;;;;;;15.88;71.96;98055.94;5135687;27;20642;-90
2021/12/10 05:21:04;;;;;;;2.83;0.97;;;;;;;15.75;72.64;98070.41;5135906;27;20253;-93
2021/12/10 05:23:33;;;;;;;7.33;0.97;;;;;;;15.75;72.77;98071.25;5117409;27;21244;-91
2021/12/10 05:26:01;;;;;;;8.33;0.77;;;;;;;15.84;72.46;98065.13;5117705;27;20245;-91
2021/12/10 05:28:27;;;;;;;3.63;0.80;;;;;;;15.97;71.92;98068.31;5135754;27;20230;-87
2021/12/10 05:30:55;;;;;;;10.60;1.80;;;;;;;16.33;70.69;98079.13;5135888;27;20276;-88
2021/12/10 05:33:25;;;;;;;13.87;2.40;;;;;;;16.28;70.38;98084.84;5135344;27;20173;-88
2021/12/10 05:35:52;;;;;;;6.50;1.50;;;;;;;16.51;69.69;98088.81;5135621;27;20219;-87
2021/12/10 05:38:20;;;;;;;2.97;0.90;;;;;;;16.21;70.74;98083.75;5135536;27;20243;-87
2021/12/10 05:40:49;;;;;;;12.17;2.50;;;;;;;16.20;71.06;98091.81;5117166;27;20170;-87
2021/12/10 05:43:14;;;;;;;10.00;1.53;;;;;;;16.24;70.86;98090.56;5135146;27;20211;-87
2021/12/10 05:45:40;;;;;;;17.87;2.30;;;;;;;16.14;71.05;98095.84;5135122;27;20210;-89
2021/12/10 05:48:06;;;;;;;8.83;1.63;;;;;;;16.35;70.60;98099.16;5116956;27;20223;-89
2021/12/10 05:50:32;;;;;;;4.60;1.67;;;;;;;16.60;69.18;98100.41;5116892;27;20202;-88
2021/12/10 05:52:58;;;;;;;8.97;1.90;;;;;;;16.63;69.08;98097.47;5134995;27;20203;-88
2021/12/10 05:55:32;;;;;;;12.10;1.67;;;;;;;16.63;68.78;98104.56;5134516;27;20254;-89
2021/12/10 05:57:58;;;;;;;11.63;2.00;;;;;;;16.62;68.92;98102.88;5134826;27;20238;-88
2021/12/10 06:00:30;;;;;;;9.10;1.30;;;;;;;16.61;69.19;98109.19;5134829;27;20211;-87
2021/12/10 06:02:58;;;;;;;5.47;0.80;;;;;;;16.38;69.47;98109.47;5135202;27;20675;-89
2021/12/10 06:05:24;;;;;;;7.73;1.40;;;;;;;16.19;69.61;98100.72;5134891;27;20180;-90
2021/12/10 06:07:50;;;;;;;5.70;2.30;;;;;;;16.11;69.71;98104.06;5116746;27;20627;-90
2021/12/10 06:10:18;;;;;;;7.10;3.23;;;;;;;16.12;69.98;98107.53;5116637;27;22153;-93
2021/12/10 06:12:45;;;;;;;11.87;1.70;;;;;;;16.13;69.99;98106.56;5135000;27;20541;-88
2021/12/10 06:15:13;;;;;;;3.13;0.93;;;;;;;16.08;69.87;98093.78;5116910;27;20190;-88
2021/12/10 06:17:38;;;;;;;8.93;2.17;;;;;;;16.29;69.01;98099.75;5135201;27;20198;-91
2021/12/10 06:20:07;;;;;;;18.17;1.80;;;;;;;16.11;69.90;98103.25;5116713;27;20640;-90
2021/12/10 06:22:32;;;;;;;8.37;1.20;;;;;;;16.14;69.53;98114.34;5116523;27;20632;-91
2021/12/10 06:24:58;;;;;;;10.20;1.40;;;;;;;16.13;69.28;98096.84;5134438;27;20205;-88
2021/12/10 06:27:23;;;;;;;10.33;1.60;;;;;;;16.23;68.56;98097.66;5134767;27;20178;-88
2021/12/10 06:29:49;;;;;;;12.07;3.33;;;;;;;16.45;67.99;98092.06;5134698;27;20605;-88
2021/12/10 06:32:15;;;;;;;11.17;2.43;;;;;;;16.44;68.19;98095.69;5116470;28;20206;-90
2021/12/10 06:34:40;;;;;;;14.30;2.07;;;;;;;16.38;67.69;98112.09;5134375;27;20175;-88
2021/12/10 06:37:06;;;;;;;6.33;1.30;;;;;;;16.31;67.79;98104.88;5134669;27;20178;-89
2021/12/10 06:39:32;;;;;;;9.20;2.70;;;;;;;16.49;67.58;98108.47;5135503;27;20183;-87
2021/12/10 06:41:58;;;;;;;10.67;2.00;;;;;;;16.58;67.18;98118.25;5134290;27;20540;-87
2021/12/10 06:44:24;;;;;;;2.90;1.00;;;;;;;16.61;66.78;98106.53;5116512;28;20174;-91
2021/12/10 06:46:50;;;;;;;8.33;1.40;;;;;;;16.45;68.02;98120.31;5116130;28;20179;-88
2021/12/10 06:49:18;;;;;;;10.30;1.70;;;;;;;16.49;68.14;98122.53;5134233;28;20532;-87
2021/12/10 06:51:45;;;;;;;9.83;2.10;;;;;;;16.59;68.18;98127.81;5134422;28;20229;-87
2021/12/10 06:54:10;;;;;;;5.97;2.10;;;;;;;16.48;69.02;98128.78;5134213;28;20179;-88
2021/12/10 06:56:36;;;;;;;13.27;1.77;;;;;;;16.32;70.11;98123.28;5134670;28;20185;-87
2021/12/10 06:59:07;;;;;;;5.63;1.30;;;;;;;16.44;70.17;98142.44;5134148;28;20571;-86
2021/12/10 07:01:38;;;;;;;10.90;1.60;;;;;;;16.38;70.90;98127.97;5134088;28;20174;-86
2021/12/10 07:04:06;;;;;;;8.00;1.10;;;;;;;16.42;70.74;98125.88;5134668;28;20155;-86
2021/12/10 07:06:32;;;;;;;7.17;0.80;;;;;;;16.18;71.65;98131.63;5134026;28;20175;-85
2021/12/10 07:09:00;;;;;;;2.93;1.53;;;;;;;16.06;72.98;98127.47;5119545;27;20186;-89
2021/12/10 07:11:26;;;;;;;4.53;1.63;;;;;;;15.98;73.12;98122.03;5138460;27;20201;-92
2021/12/10 07:13:56;;;;;;;9.47;1.70;;;;;;;15.91;74.47;98136.75;5138663;27;20179;-91
2021/12/10 07:16:23;;;;;;;5.90;1.27;;;;;;;15.76;75.93;98138.13;5139057;27;20185;-91
2021/12/10 07:18:52;;;;;;;10.07;1.67;;;;;;;15.93;76.31;98148.03;5120291;27;20186;-89
2021/12/10 07:21:17;;;;;;;2.37;1.07;;;;;;;15.86;76.82;98152.19;5120256;27;20234;-87
2021/12/10 07:23:43;;;;;;;3.67;0.83;;;;;;;15.47;79.58;98156.56;5137944;27;20202;-91
2021/12/10 07:26:10;;;;;;;8.13;1.27;;;;;;;15.52;80.81;98154.34;5137911;27;20254;-87
2021/12/10 07:28:40;;;;;;;10.67;1.63;;;;;;;15.46;80.93;98154.88;5138135;27;20171;-89
2021/12/10 07:31:07;;;;;;;3.37;0.63;;;;;;;15.34;82.17;98146.22;5138365;27;20213;-89
2021/12/10 07:33:33;;;;;;;12.70;1.17;;;;;;;15.41;82.48;98135.94;5137693;27;20246;-89
2021/12/10 07:35:58;;;;;;;7.33;1.13;;;;;;;15.15;82.90;98138.22;5137963;27;20180;-91
2021/12/10 07:38:24;;;;;;;10.27;1.10;;;;;;;15.06;84.22;98131.13;5119954;27;20646;-87
2021/12/10 07:40:51;;;;;;;12.53;1.83;;;;;;;15.06;84.51;98114.44;5119517;27;20187;-87
2021/12/10 07:43:17;;;;;;;5.77;1.43;;;;;;;15.00;85.16;98129.00;5119514;27;20237;-91
2021/12/10 07:45:48;;;;;;;15.03;1.70;;;;;;;14.73;86.97;98121.63;5137894;27;20177;-88
2021/12/10 07:48:18;;;;;;;11.00;2.13;;;;;;;14.70;88.36;98126.38;5119863;27;20181;-89
2021/12/10 07:51:06;;;;;;;10.63;1.57;;;;;;;14.75;88.45;98118.88;5137597;27;20195;-90
2021/12/10 07:53:33;;;;;;;2.83;0.87;;;;;;;14.74;88.54;98115.41;5138390;27;20181;-93
2021/12/10 07:56:02;;;;;;;3.80;1.03;;;;;;;14.64;89.21;98116.31;5138083;27;20226;-93
2021/12/10 07:58:32;;;;;;;7.03;0.90;;;;;;;14.65;88.28;98115.34;5120169;27;20178;-91
2021/12/10 08:01:02;;;;;;;20.97;1.50;;;;;;;14.16;87.36;98130.00;5119718;27;20171;-92
2021/12/10 08:03:30;;;;;;;0.70;0.30;;;;;;;14.11;87.68;98131.34;5120325;27;20178;-94
2021/12/10 08:06:05;;;;;;;1.20;0.53;;;;;;;13.92;86.78;98137.28;5137593;27;20178;-89
2021/12/10 08:08:40;;;;;;;6.17;2.20;;;;;;;13.80;88.29;98140.09;5120070;27;20179;-92
2021/12/10 08:11:14;;;;;;;6.00;2.13;;;;;;;13.75;89.05;98135.19;5120401;27;20190;-89
2021/12/10 08:13:43;;;;;;;17.77;1.70;;;;;;;13.55;89.92;98149.13;5118440;27;20203;-90
2021/12/10 08:16:09;;;;;;;1.83;0.77;;;;;;;13.53;89.55;98137.88;5138196;27;20174;-94
2021/12/10 08:18:45;;;;;;;2.80;1.27;;;;;;;13.49;90.08;98137.28;5120202;28;20527;-92
2021/12/10 08:21:11;;;;;;;0.50;0.40;;;;;;;13.47;89.43;98131.31;5138168;27;20219;-91
2021/12/10 08:23:38;;;;;;;2.13;0.90;;;;;;;13.50;90.43;98123.16;5119031;27;20639;-90
2021/12/10 08:26:07;;;;;;;0.80;0.30;;;;;;;13.40;91.25;98116.13;5138109;27;20237;-93
2021/12/10 08:28:33;;;;;;;1.40;0.60;;;;;;;13.48;90.85;98111.09;5138717;27;20163;-94
2021/12/10 08:31:01;;;;;;;0.30;0.30;;;;;;;13.50;90.47;98098.63;5137394;27;20252;-92
2021/12/10 08:33:27;;;;;;;0.70;0.40;;;;;;;13.40;91.54;98105.59;5119393;27;20223;-90
2021/12/10 08:35:58;;;;;;;1.10;0.47;;;;;;;13.48;91.33;98111.94;5119332;27;20605;-93
2021/12/10 08:38:27;;;;;;;1.90;0.53;;;;;;;13.58;91.68;98106.75;5119540;27;20183;-92
2021/12/10 08:41:02;;;;;;;2.77;0.40;;;;;;;13.62;90.75;98117.88;5119399;27;20182;-94
2021/12/10 08:43:29;;;;;;;4.83;0.20;;;;;;;13.61;91.20;98117.03;5120539;27;20572;-91
2021/12/10 08:45:55;;;;;;;0.67;0.37;;;;;;;13.71;90.55;98111.84;5137865;27;20179;-92
2021/12/10 08:48:23;;;;;;;0.87;0.73;;;;;;;13.90;90.11;98122.56;5136458;27;20203;-90
2021/12/10 08:50:50;;;;;;;2.00;0.80;;;;;;;13.85;90.17;98125.59;5137206;27;20278;-91
2021/12/10 08:53:17;;;;;;;5.20;0.90;;;;;;;13.89;90.70;98113.81;5118924;27;20175;-92
2021/12/10 08:55:46;;;;;;;0.73;0.43;;;;;;;14.00;90.74;98126.94;5118243;27;20183;-92
2021/12/10 08:58:13;;;;;;;3.43;0.80;;;;;;;14.11;90.87;98116.38;5118539;27;20216;-92
2021/12/10 09:00:57;;;;;;;7.23;1.70;;;;;;;14.15;90.45;98117.78;5136184;27;20188;-91
2021/12/10 09:03:22;;;;;;;1.93;0.77;;;;;;;14.18;90.42;98115.88;5118345;27;20184;-89
2021/12/10 09:05:48;;;;;;;1.23;0.60;;;;;;;14.30;90.17;98114.81;5136503;27;20181;-90
2021/12/10 09:08:16;;;;;;;6.23;1.43;;;;;;;14.18;90.61;98110.59;5136416;27;20659;-91
2021/12/10 09:10:47;;;;;;;2.70;1.00;;;;;;;14.14;90.65;98113.47;5136377;27;20259;-91
2021/12/10 09:13:15;;;;;;;2.53;0.63;;;;;;;14.24;89.58;98099.53;5135993;27;20246;-91
2021/12/10 09:15:47;;;;;;;15.47;1.40;;;;;;;14.35;87.83;98102.13;5117850;27;20183;-89
2021/12/10 09:18:13;;;;;;;6.37;0.70;;;;;;;14.32;88.61;98090.03;5136275;27;20573;-89
2021/12/10 09:20:43;;;;;;;3.20;0.90;;;;;;;14.42;88.14;98098.00;5135722;27;20183;-91
2021/12/10 09:23:12;;;;;;;2.47;1.17;;;;;;;14.52;87.51;98085.72;5135734;27;20187;-89
2021/12/10 09:25:39;;;;;;;1.60;0.80;;;;;;;14.58;86.71;98086.03;5117633;27;20551;-89
2021/12/10 09:28:05;;;;;;;2.57;0.77;;;;;;;14.71;86.45;98110.41;5117473;27;20263;-89
2021/12/10 09:30:33;;;;;;;2.70;0.87;;;;;;;14.99;85.84;98111.47;5135415;27;20278;-89
2021/12/10 09:32:58;;;;;;;4.20;0.97;;;;;;;14.86;85.20;98105.59;5135419;27;20218;-90
2021/12/10 09:35:27;;;;;;;6.77;1.10;;;;;;;14.69;86.16;98116.78;5135346;27;20205;-89
2021/12/10 09:37:53;;;;;;;3.33;1.37;;;;;;;14.80;85.95;98124.59;5135304;27;20168;-89
2021/12/10 09:40:24;;;;;;;2.40;0.80;;;;;;;14.56;86.06;98121.41;5135834;27;20264;-90
2021/12/10 09:42:50;;;;;;;7.97;0.60;;;;;;;14.39;86.91;98121.97;5135858;27;20225;-89
2021/12/10 09:45:23;;;;;;;4.10;0.97;;;;;;;14.26;87.47;98132.69;5135644;27;20174;-91
2021/12/10 09:47:49;;;;;;;3.70;1.00;;;;;;;14.34;87.30;98111.84;5117183;27;20168;-89
2021/12/10 09:50:17;;;;;;;3.60;1.17;;;;;;;14.42;86.30;98095.38;5135315;27;20263;-91
2021/12/10 09:52:43;;;;;;;6.73;1.30;;;;;;;14.52;85.34;98101.53;5135020;27;20229;-91
2021/12/10 09:55:12;;;;;;;5.17;1.20;;;;;;;14.57;83.95;98097.53;5135285;27;20176;-89
2021/12/10 09:57:38;;;;;;;2.73;1.17;;;;;;;14.66;83.22;98085.38;5135613;27;20173;-89
2021/12/10 10:00:12;;;;;;;6.23;1.80;;;;;;;14.81;80.56;98084.06;5134979;27;20173;-87
2021/12/10 10:02:39;;;;;;;3.13;1.17;;;;;;;14.85;80.76;98090.75;5135461;27;20274;-88
2021/12/10 10:05:05;;;;;;;10.67;3.77;;;;;;;14.95;79.34;98086.34;5134832;27;20180;-89
2021/12/10 10:07:32;;;;;;;25.77;5.43;;;;;;;15.13;79.53;98089.16;5116759;27;20173;-88
2021/12/10 10:10:14;;;;;;;16.93;4.57;;;;;;;15.00;78.77;98084.13;5134758;27;20178;-88
2021/12/10 10:12:43;;;;;;;8.47;2.43;;;;;;;15.00;79.48;98072.75;5134681;27;20557;-88
2021/12/10 10:15:17;;;;;;;5.37;1.50;;;;;;;14.98;79.43;98077.31;5134678;27;20248;-87
2021/12/10 10:17:42;;;;;;;10.60;2.90;;;;;;;14.84;80.97;98067.97;5135203;27;20501;-89
2021/12/10 10:20:11;;;;;;;9.47;2.07;;;;;;;14.75;82.01;98064.31;5134572;27;20178;-87
2021/12/10 10:22:37;;;;;;;2.87;1.20;;;;;;;14.90;81.79;98066.59;5134565;27;20171;-87
2021/12/10 10:25:08;;;;;;;4.47;1.50;;;;;;;14.93;82.24;98064.53;5134468;27;20569;-87
2021/12/10 10:27:36;;;;;;;4.23;0.63;;;;;;;14.98;83.07;98059.69;5135067;27;20168;-89
2021/12/10 10:30:08;;;;;;;1.73;0.60;;;;;;;15.02;82.66;98055.81;5116304;27;20265;-89
2021/12/10 10:32:35;;;;;;;4.17;0.60;;;;;;;14.95;83.01;98067.03;5134923;27;20184;-87
2021/12/10 10:35:09;;;;;;;0.90;0.40;;;;;;;14.95;82.15;98064.38;5134669;27;20174;-90
2021/12/10 10:37:36;;;;;;;3.93;1.07;;;;;;;14.96;82.82;98064.28;5116309;28;20169;-87
2021/12/10 10:40:04;;;;;;;2.20;0.57;;;;;;;14.80;83.97;98050.75;5134587;27;20230;-88
2021/12/10 10:42:33;;;;;;;0.90;0.40;;;;;;;14.89;83.30;98054.34;5115852;28;20597;-90
2021/12/10 10:45:04;;;;;;;2.50;1.00;;;;;;;14.82;84.31;98056.72;5134305;27;20186;-87
2021/12/10 10:47:31;;;;;;;1.93;0.73;;;;;;;15.03;83.37;98057.47;5134257;27;20238;-88
2021/12/10 10:50:01;;;;;;;5.23;1.03;;;;;;;14.95;82.98;98035.38;5134209;28;20169;-91
2021/12/10 10:52:36;;;;;;;2.03;0.67;;;;;;;14.98;81.92;98038.59;5134150;28;20194;-88
2021/12/10 10:55:12;;;;;;;1.53;0.57;;;;;;;15.02;81.90;98039.97;5135021;28;20170;-89
2021/12/10 10:58:12;;;;;;;2.17;0.60;;;;;;;15.09;79.40;98043.75;5116107;28;20208;-88
2021/12/10 11:00:50;;;;;;;4.03;0.70;;;;;;;14.85;79.92;98047.69;5116101;28;20257;-87
2021/12/10 11:03:21;;;;;;;2.53;1.00;;;;;;;14.87;80.83;98051.88;5116041;28;20290;-89
2021/12/10 11:05:50;;;;;;;3.60;0.97;;;;;;;15.01;81.01;98043.59;5134394;28;20175;-88
2021/12/10 11:08:32;;;;;;;4.13;1.17;;;;;;;15.17;80.28;98043.06;5134606;28;20179;-90
2021/12/10 11:11:16;;;;;;;1.63;0.80;;;;;;;15.16;80.25;98042.25;5134258;28;20193;-88
2021/12/10 11:13:45;;;;;;;1.80;0.47;;;;;;;15.27;79.87;98051.84;5134568;28;20170;-87
2021/12/10 11:16:20;;;;;;;1.23;0.40;;;;;;;15.17;79.86;98057.09;5133978;28;20205;-88
2021/12/10 11:18:47;;;;;;;2.90;1.00;;;;;;;15.22;79.50;98054.91;5134565;28;20194;-89
2021/12/10 11:21:16;;;;;;;1.63;1.07;;;;;;;15.03;78.71;98051.38;5133949;28;20613;-88
2021/12/10 11:23:43;;;;;;;1.13;0.73;;;;;;;15.19;79.84;98057.81;5133770;28;20178;-89
2021/12/10 11:26:10;;;;;;;1.30;0.50;;;;;;;14.91;78.02;98074.38;5115851;28;20169;-88
2021/12/10 11:28:39;;;;;;;3.27;0.67;;;;;;;15.14;78.14;98081.13;5133853;28;20242;-88
2021/12/10 11:31:14;;;;;;;2.23;0.70;;;;;;;15.19;77.03;98084.19;5133735;28;20204;-89
2021/12/10 11:33:46;;;;;;;0.30;0.20;;;;;;;15.04;76.92;98088.16;5134445;28;20185;-88
2021/12/10 11:36:15;;;;;;;0.10;0.10;;;;;;;14.90;77.28;98095.63;5134133;28;20167;-89
2021/12/10 11:38:44;;;;;;;0.97;0.30;;;;;;;14.89;77.91;98097.41;5133758;28;20185;-88
2021/12/10 11:41:12;;;;;;;7.50;0.63;;;;;;;15.09;77.57;98099.19;5115731;28;20221;-88
2021/12/10 11:48:54;;;;;;;2.73;0.80;;;;;;;14.69;78.25;98106.22;5133697;28;20547;-87
2021/12/10 11:51:30;;;;;;;1.93;0.43;;;;;;;14.65;77.62;98099.50;5133922;28;20180;-87
2021/12/10 11:53:59;;;;;;;4.20;1.47;;;;;;;14.41;80.19;98091.09;5135329;27;20165;-88
2021/12/10 11:56:40;;;;;;;5.63;0.77;;;;;;;14.32;81.08;98083.94;5137543;27;20196;-89